Airfield :
LOGIN :

Register | Disclaimer

   EN    FR    IT 

 










Legend :    VFR   Marginal VFR   IFR   Intensive IFR   Very Intensive IFR
Visi :
Ceiling :
>= 8 km
>= 3000ft
5 to 8 km
1000 to 3000 ft
1500m to 5 km
500 to 1000 ft
800 to 1500m
200 to 500 ft
< 800m
< 200 ft
Symbols :   Thunderstorms  Fog  Heavy snow  Heavy precipitations  Wind > 20 kt
SIGMETs :     Misc.  Thunderstorms  Icing  Turbulence  Mountain Waves  Volcanic Ashes






- Airport Elevation : 90 ft
- IATA code : NTE


LFRS - Nantes

CURRENT METAR :
  • 260500Z AUTO 15001KT 0700 0650 R03/0700D R21/0800N FG VV/// 07/07 Q1023 TEMPO 0300 FG

EXPIRED METARs :
  • 260430Z AUTO 14002KT 0600 0550 R03/0650D R21/0750N FG VV/// 07/07 Q1023 TEMPO 0300 FG
  • 260400Z AUTO 16003KT 0900 0650 R03/1300D R21/0900U FG VV/// 07/07 Q1023 TEMPO 0300 FG
  • 260330Z AUTO 17002KT 0600 0550 R03/0800N R21/0650D FG VV/// 07/06 Q1023 TEMPO 0300 FG
  • 260300Z AUTO 18003KT 0650 0450 R03/0550N R21/0900N FG VV/// 06/06 Q1023 TEMPO 0300 FG
  • 260230Z AUTO 18003KT 0700 0350 R03/0400U R21/0800U FG VV/// 07/07 Q1023 TEMPO 0300 FG

TAF TAF LFRS
Valid from the 26 at 00:00 until the 27 at 06:00 UTC


252300Z 2600/2706 VRB03KT 4000 BR SCT010
TEMPO 2600/2603 0700 FG BKN006
PROB40
TEMPO 2600/2609 0300 FG VV///
BECMG 2609/2611 24010KT 9999 NSW SCT018
BECMG 2619/2622 3000 BR
PROB40
TEMPO 2621/2706 0300 FG VV///
ATIS : +33 2 40 05 12 74



MET'MAP, your aeronautical weather chart ! - Copyright ORBIFLY December 2007 - Disclaimer

ORBIFLY MET'MAP TEAM :

Programming & Development : Alexandra Zaïnal
Concept & original design : Baudouin d'Aumeries
Assistance for programming : Marc-Olivier Méhu
Technical & hardware support : Manuel Goepfert

Contact : metmap@orbifly.com




SOURCES & CREDITS :

   NOAA